Okeechobee, FL

11:46 AM EDT on July 31, 2015 (GMT -0400)
Okeechobee County | | Change Station
CLOSE
Current Station
Airport
Location: Okeechobee,
Elevation: 33 ft
Nearby Weather Stations

Elev 33 ft 27.27 °N, 80.85 °W | Updated 11 minutes ago

Clear
Clear
84 °F
Feels Like 94 °F
N
9
Wind Variable Wind from SSW

Today
High -- | Low -- °F
--% Chance of Precip.
Yesterday
High -- | Low -- °F
Precip. -- in
6:46 AM 8:12 PM
Full, 100% visible
Pressure 30.04 in
Visibility -9999.0 miles
Clouds Clear
Heat Index 94 °F
Dew Point 77 °F
Humidity 79%
Rainfall 0.01 in
Snow Depth Not available.
UV 13 out of 12
Pollen .50 out of 12
Air Quality Not available.
Flu Activity Not available.
METAR KOBE 311535Z AUTO 20008KT CLR 29/25 A3004 RMK AO2 LTG DSNT E PWINO

More Conditions Fewer Conditions

Pressure 30.04 in
Visibility -9999.0 miles
Clouds Clear
Heat Index 94 °F
Dew Point 77 °F
Humidity 79%
Rainfall 0.01 in
Snow Depth Not available.
UV 13 out of 12
Pollen .50 out of 12
Air Quality Not available.
Flu Activity Not available.
METAR KOBE 311535Z AUTO 20008KT CLR 29/25 A3004 RMK AO2 LTG DSNT E PWINO

More Conditions Fewer Conditions

Nowcast | as of 10:34 am EDT on July 31, 2015

Ongoing storms along the west Florida coast have pushed out a strong outflow boundary that is quickly moving eastwards across the peninsula. This boundary is expected to reach into Lake County and the western areas of the Orlando Metro around midday with showers and storms developing along and just ahead of it. With a warm and very moist atmosphere still in place across the region...additional shower and storm development will occur across the remainder of the region. Coverage of showers and storms will increase throughout the afternoon with additional boundary collisions. Stronger storms today...especially those developing with boundary collisions and along outflows...will be capable of producing wind gusts to 50 mph. Storms will generally move off to the east-northeast at 15 to 20 mph. Locally heavy rainfall will be possible...especially along the coast...leading to standing water and minor flooding of poor drainage areas. Additional details...including graphics are available online at: http://www.Srh.NOAA.Gov/mlb/blog.Php

×

10-Day Weather Forecast

×

Almanac

Astronomy

Jul. 31, 2015 Rise Set
Actual Time
Civil Twilight
Nautical Twilight
Astronomical Twilight
Moon
Length of Visible Light
Length of Day
Tomorrow will be .
, % of the Moon is Illuminated

Today's Extremes

State Highs State Lows

Community

WunderPhotos

Upload Photos

1,842,685 photos uploaded!

WunderBlogs® & News

Nearby

Air Quality

  Air Quality AQ Index Pollutant
Not available.

Snow Depth

Station Depth Elevation

Earthquake Activity

City Distance Mag. Time & Date
Minimum magnitude displayed is 2.5.

Coastal Water Temperatures

Place Temperature

Stations

Nearby Weather Stations

Station Location Temp. Windchill Dew Point Humidity Wind Precip. Elev Updated Type